createdAt,value
2019-01-13T00:02:04.849Z,1.90
2019-01-13T00:04:36.494Z,2.03
2019-01-13T00:07:08.117Z,1.70
2019-01-13T00:09:39.903Z,2.23
2019-01-13T00:12:11.591Z,1.92
2019-01-13T00:14:43.203Z,1.70
2019-01-13T00:17:14.839Z,1.90
2019-01-13T00:19:46.573Z,2.07
2019-01-13T00:22:18.247Z,1.97
2019-01-13T00:24:49.907Z,2.20
2019-01-13T00:27:21.637Z,2.00
2019-01-13T00:29:53.287Z,1.70
2019-01-13T00:32:24.951Z,1.90
2019-01-13T00:34:56.612Z,2.30
2019-01-13T00:37:28.668Z,2.20
2019-01-13T00:40:01.027Z,1.70
2019-01-13T00:42:33.310Z,1.73
2019-01-13T00:45:06.825Z,1.93
2019-01-13T00:47:39.198Z,1.93
2019-01-13T00:50:13.754Z,1.67
2019-01-13T00:52:45.962Z,2.00
2019-01-13T00:55:18.693Z,1.60
2019-01-13T00:57:50.359Z,1.90
2019-01-13T01:00:26.862Z,2.20
2019-01-13T01:02:56.668Z,2.03
2019-01-13T01:05:28.588Z,2.10
2019-01-13T01:08:00.187Z,2.27
2019-01-13T01:10:31.924Z,1.93
2019-01-13T01:13:03.533Z,2.10
2019-01-13T01:15:35.286Z,1.60
2019-01-13T01:18:07.049Z,1.93
2019-01-13T01:20:38.717Z,1.70
2019-01-13T01:23:10.324Z,2.05
2019-01-13T01:25:42.168Z,1.80
2019-01-13T01:28:13.800Z,1.93
2019-01-13T01:30:45.501Z,1.80
2019-01-13T01:33:17.194Z,1.97
2019-01-13T01:35:48.834Z,1.90
2019-01-13T01:38:20.621Z,1.90
2019-01-13T01:40:53.104Z,2.10
2019-01-13T01:43:24.728Z,2.10
2019-01-13T01:45:56.324Z,1.80
2019-01-13T01:48:28.056Z,1.97
2019-01-13T01:50:59.630Z,2.07
2019-01-13T01:53:31.256Z,2.30
2019-01-13T01:56:03.601Z,1.60
2019-01-13T01:58:35.199Z,2.00
2019-01-13T02:01:07.570Z,2.10
2019-01-13T02:03:40.903Z,1.60
2019-01-13T02:06:12.648Z,1.70
2019-01-13T02:08:44.287Z,1.77
2019-01-13T02:11:16.535Z,2.10
2019-01-13T02:13:48.157Z,2.10
2019-01-13T02:16:20.047Z,1.90
2019-01-13T02:18:52.770Z,2.30
2019-01-13T02:21:24.778Z,2.37
2019-01-13T02:23:56.698Z,2.42
2019-01-13T02:26:28.488Z,2.37
2019-01-13T02:29:00.488Z,2.50
2019-01-13T02:31:32.094Z,2.40
2019-01-13T02:34:03.857Z,2.47
2019-01-13T02:36:35.460Z,2.20
2019-01-13T02:39:09.235Z,2.50
2019-01-13T02:41:41.006Z,2.17
2019-01-13T02:44:12.667Z,2.50
2019-01-13T02:46:44.719Z,2.30
2019-01-13T02:49:16.438Z,2.27
2019-01-13T02:51:48.149Z,2.43
2019-01-13T02:54:19.867Z,2.40
2019-01-13T02:56:51.575Z,2.50
2019-01-13T02:59:23.264Z,2.40
2019-01-13T03:01:54.937Z,2.30
2019-01-13T03:04:26.558Z,2.23
2019-01-13T03:06:58.377Z,2.40
2019-01-13T03:09:30.032Z,2.47
2019-01-13T03:12:01.751Z,2.10
2019-01-13T03:14:33.370Z,2.23
2019-01-13T03:17:05.017Z,2.83
2019-01-13T03:19:36.739Z,2.60
2019-01-13T03:22:09.316Z,2.00
2019-01-13T03:24:40.919Z,2.37
2019-01-13T03:27:12.560Z,2.40
2019-01-13T03:29:44.221Z,2.43
2019-01-13T03:32:15.860Z,3.10
2019-01-13T03:34:47.451Z,2.40
2019-01-13T03:37:19.966Z,2.33
2019-01-13T03:39:52.958Z,2.70
2019-01-13T03:42:24.575Z,2.17
2019-01-13T03:44:56.376Z,2.03
2019-01-13T03:47:28.101Z,2.17
2019-01-13T03:50:00.037Z,2.13
2019-01-13T03:52:31.757Z,2.73
2019-01-13T03:55:03.420Z,2.73
2019-01-13T03:57:35.066Z,2.50
2019-01-13T04:00:11.590Z,3.00
2019-01-13T04:02:43.211Z,2.50
2019-01-13T04:05:15.034Z,2.67
2019-01-13T04:07:47.523Z,2.10
2019-01-13T04:10:19.723Z,2.00
2019-01-13T04:12:51.460Z,2.70
2019-01-13T04:16:02.588Z,2.37
2019-01-13T04:18:34.229Z,2.60
2019-01-13T04:21:05.891Z,2.17
2019-01-13T04:23:37.697Z,2.43
2019-01-13T04:26:09.298Z,2.50
2019-01-13T04:28:41.027Z,2.62
2019-01-13T04:31:12.621Z,2.37
2019-01-13T04:33:44.255Z,2.17
2019-01-13T04:36:15.860Z,2.40
2019-01-13T04:38:48.428Z,2.53
2019-01-13T04:41:20.740Z,2.10
2019-01-13T04:45:09.593Z,2.30
2019-01-13T04:47:41.214Z,2.23
2019-01-13T04:50:12.909Z,2.30
2019-01-13T04:52:45.012Z,2.50
2019-01-13T04:55:16.787Z,2.50
2019-01-13T04:57:49.178Z,2.15
2019-01-13T05:00:21.488Z,2.13
2019-01-13T05:02:53.129Z,2.47
2019-01-13T05:05:24.755Z,2.37
2019-01-13T05:07:56.356Z,1.83
2019-01-13T05:10:28.087Z,2.40
2019-01-13T05:13:00.466Z,2.53
2019-01-13T05:15:32.131Z,2.30
2019-01-13T05:18:03.817Z,2.60
2019-01-13T05:20:35.779Z,2.50
2019-01-13T05:23:07.376Z,2.73
2019-01-13T05:25:39.069Z,2.20
2019-01-13T05:28:10.719Z,2.20
2019-01-13T05:30:42.427Z,2.30
2019-01-13T05:33:14.025Z,2.80
2019-01-13T05:35:45.733Z,2.30
2019-01-13T05:38:17.325Z,2.53
2019-01-13T05:40:49.476Z,2.63
2019-01-13T05:43:21.135Z,2.70
2019-01-13T05:45:52.779Z,2.70
2019-01-13T05:48:24.442Z,2.60
2019-01-13T05:50:56.191Z,2.42
2019-01-13T05:53:27.781Z,2.77
2019-01-13T05:56:00.263Z,3.10
2019-01-13T05:58:31.963Z,2.77
2019-01-13T06:01:03.660Z,2.45
2019-01-13T06:03:35.283Z,2.93
2019-01-13T06:06:07.000Z,2.70
2019-01-13T06:08:38.735Z,2.60
2019-01-13T06:11:10.322Z,2.93
2019-01-13T06:13:42.093Z,4.30
2019-01-13T06:16:13.747Z,3.17
2019-01-13T06:18:45.454Z,3.33
2019-01-13T06:21:17.073Z,3.00
2019-01-13T06:23:48.942Z,3.33
2019-01-13T06:26:20.894Z,2.90
2019-01-13T06:28:53.014Z,3.12
2019-01-13T06:31:24.852Z,3.47
2019-01-13T06:33:56.580Z,3.10
2019-01-13T06:36:28.343Z,3.00
2019-01-13T06:39:00.054Z,3.20
2019-01-13T06:41:32.348Z,3.00
2019-01-13T06:44:04.237Z,3.10
2019-01-13T06:46:35.851Z,2.87
2019-01-13T06:49:07.914Z,3.30
2019-01-13T06:51:39.580Z,3.03
2019-01-13T06:54:11.276Z,2.83
2019-01-13T06:56:46.046Z,3.17
2019-01-13T06:59:21.759Z,3.07
2019-01-13T07:02:03.338Z,2.72
2019-01-13T07:04:36.806Z,3.10
2019-01-13T07:07:10.633Z,3.07
2019-01-13T07:09:45.981Z,2.67
2019-01-13T07:12:19.477Z,4.10
2019-01-13T07:14:55.172Z,2.50
2019-01-13T07:17:28.289Z,2.87
2019-01-13T07:20:00.604Z,2.20
2019-01-13T07:22:37.987Z,2.77
2019-01-13T07:25:10.832Z,2.80
2019-01-13T07:27:44.567Z,2.83
2019-01-13T07:30:26.394Z,2.37
2019-01-13T07:32:58.061Z,2.63
2019-01-13T07:35:31.273Z,3.03
2019-01-13T07:38:06.624Z,2.25
2019-01-13T07:40:49.844Z,2.47
2019-01-13T07:43:21.567Z,2.70
2019-01-13T07:45:53.512Z,2.20
2019-01-13T07:48:29.039Z,2.10
2019-01-13T07:51:03.726Z,1.90
2019-01-13T07:53:41.590Z,2.17
2019-01-13T07:56:20.475Z,2.00
2019-01-13T07:58:55.321Z,2.23
2019-01-13T08:01:27.206Z,2.47
2019-01-13T08:04:08.917Z,1.77
2019-01-13T08:06:42.358Z,1.83
2019-01-13T08:09:14.093Z,1.73
2019-01-13T08:11:45.800Z,1.83
2019-01-13T08:14:17.459Z,1.50
2019-01-13T08:16:49.199Z,1.93
2019-01-13T08:19:20.853Z,2.00
2019-01-13T08:21:52.538Z,1.80
2019-01-13T08:24:24.263Z,1.60
2019-01-13T08:26:56.898Z,1.50
2019-01-13T08:29:28.977Z,1.30
2019-01-13T08:32:00.762Z,1.83
2019-01-13T08:34:32.582Z,1.23
2019-01-13T08:37:04.257Z,1.40
2019-01-13T08:39:36.681Z,1.30
2019-01-13T08:42:08.490Z,1.55
2019-01-13T08:44:40.147Z,1.70
2019-01-13T08:47:11.729Z,1.30
2019-01-13T08:49:43.493Z,1.53
2019-01-13T08:52:16.672Z,1.47
2019-01-13T08:54:50.327Z,1.20
2019-01-13T08:57:22.147Z,1.23
2019-01-13T08:59:53.826Z,1.20
2019-01-13T09:02:32.040Z,1.40
2019-01-13T09:05:00.269Z,1.17
2019-01-13T09:07:31.947Z,1.13
2019-01-13T09:10:03.849Z,1.40
2019-01-13T09:12:35.879Z,1.10
2019-01-13T09:15:11.352Z,1.17
2019-01-13T09:17:43.076Z,1.20
2019-01-13T09:20:21.176Z,1.47
2019-01-13T09:22:53.056Z,1.50
2019-01-13T09:25:24.849Z,1.63
2019-01-13T09:27:57.691Z,1.60
2019-01-13T09:30:30.835Z,1.37
2019-01-13T09:33:02.482Z,1.10
2019-01-13T09:35:34.238Z,1.05
2019-01-13T09:38:06.817Z,1.13
2019-01-13T09:40:39.345Z,1.47
2019-01-13T09:43:11.813Z,1.47
2019-01-13T09:45:43.517Z,1.37
2019-01-13T09:48:15.225Z,1.30
2019-01-13T09:50:46.991Z,1.43
2019-01-13T09:53:18.737Z,1.23
2019-01-13T09:55:50.431Z,1.33
2019-01-13T09:58:22.736Z,1.80
2019-01-13T10:00:54.510Z,1.33
2019-01-13T10:03:26.336Z,1.10
2019-01-13T10:05:58.053Z,1.30
2019-01-13T10:08:29.883Z,1.30
2019-01-13T10:11:01.571Z,1.92
2019-01-13T10:13:33.445Z,1.80
2019-01-13T10:16:05.217Z,1.27
2019-01-13T10:18:36.939Z,1.53
2019-01-13T10:21:08.593Z,1.50
2019-01-13T10:23:40.547Z,1.70
2019-01-13T10:26:12.306Z,1.53
2019-01-13T10:28:44.034Z,1.40
2019-01-13T10:31:15.977Z,1.40
2019-01-13T10:33:47.764Z,1.57
2019-01-13T10:36:19.613Z,1.30
2019-01-13T10:38:58.901Z,1.43
2019-01-13T10:41:31.390Z,1.53
2019-01-13T10:44:09.988Z,2.13
2019-01-13T10:46:44.875Z,1.80
2019-01-13T10:49:26.089Z,1.60
2019-01-13T10:51:56.028Z,1.30
2019-01-13T10:54:32.176Z,1.20
2019-01-13T10:57:02.509Z,1.40
2019-01-13T10:59:39.549Z,1.90
2019-01-13T11:02:14.974Z,1.63
2019-01-13T11:04:46.802Z,1.30
2019-01-13T11:07:20.485Z,1.50
2019-01-13T11:09:52.377Z,1.47
2019-01-13T11:12:24.044Z,1.70
2019-01-13T11:14:55.756Z,1.97
2019-01-13T11:17:27.375Z,1.63
2019-01-13T11:19:59.879Z,1.57
2019-01-13T11:22:31.543Z,1.40
2019-01-13T11:25:03.697Z,1.50
2019-01-13T11:27:35.541Z,1.50
2019-01-13T11:30:11.913Z,1.30
2019-01-13T11:32:43.708Z,1.37
2019-01-13T11:35:15.805Z,1.50
2019-01-13T11:37:48.098Z,1.43
2019-01-13T11:40:25.720Z,1.33
2019-01-13T11:42:57.478Z,1.50
2019-01-13T11:45:29.141Z,1.40
2019-01-13T11:48:00.915Z,1.40
2019-01-13T11:50:32.713Z,1.40
2019-01-13T11:53:04.751Z,1.60
2019-01-13T11:55:36.508Z,1.63
2019-01-13T11:58:08.402Z,1.57
2019-01-13T12:00:46.429Z,1.57
2019-01-13T12:03:18.859Z,1.40
2019-01-13T12:05:50.566Z,1.50
2019-01-13T12:08:22.304Z,1.50
2019-01-13T12:10:54.006Z,1.67
2019-01-13T12:13:26.471Z,1.50
2019-01-13T12:15:59.591Z,1.50
2019-01-13T12:18:31.617Z,1.30
2019-01-13T12:21:05.303Z,2.07
2019-01-13T12:23:39.535Z,1.40
2019-01-13T12:26:11.470Z,1.60
2019-01-13T12:28:46.097Z,1.20
2019-01-13T12:31:28.127Z,1.20
2019-01-13T12:34:09.079Z,1.20
2019-01-13T12:36:42.690Z,1.50
2019-01-13T12:39:20.271Z,1.27
2019-01-13T12:41:57.897Z,1.20
2019-01-13T12:44:32.484Z,1.32
2019-01-13T12:47:06.939Z,1.23
2019-01-13T12:49:46.395Z,1.33
2019-01-13T12:52:23.680Z,1.40
2019-01-13T12:55:01.576Z,1.40
2019-01-13T12:57:37.058Z,1.50
2019-01-13T13:00:15.651Z,1.40
2019-01-13T13:02:48.095Z,1.13
2019-01-13T13:05:25.774Z,1.20
2019-01-13T13:08:03.561Z,1.40
2019-01-13T13:10:48.090Z,1.50
2019-01-13T13:13:19.820Z,1.30
2019-01-13T13:15:51.514Z,1.40
2019-01-13T13:18:23.247Z,1.30
2019-01-13T13:20:55.400Z,1.63
2019-01-13T13:23:27.404Z,1.20
2019-01-13T13:25:59.234Z,1.20
2019-01-13T13:28:30.988Z,1.40
2019-01-13T13:31:02.747Z,1.53
2019-01-13T13:33:38.656Z,1.27
2019-01-13T13:36:10.216Z,1.60
2019-01-13T13:38:41.922Z,1.70
2019-01-13T13:41:14.207Z,1.90
2019-01-13T13:43:43.506Z,1.47
2019-01-13T13:46:15.232Z,1.50
2019-01-13T13:48:46.986Z,1.53
2019-01-13T13:51:19.355Z,1.60
2019-01-13T13:53:51.795Z,1.40
2019-01-13T13:56:23.494Z,1.30
2019-01-13T13:58:55.275Z,1.40
2019-01-13T14:01:27.066Z,1.20
2019-01-13T14:03:58.874Z,1.57
2019-01-13T14:06:30.577Z,1.70
2019-01-13T14:09:03.701Z,1.63
2019-01-13T14:11:35.435Z,1.50
2019-01-13T14:14:07.869Z,1.70
2019-01-13T14:16:39.704Z,1.50
2019-01-13T14:19:11.821Z,1.57
2019-01-13T14:21:43.556Z,1.77
2019-01-13T14:24:15.974Z,1.50
2019-01-13T14:26:47.749Z,1.47
2019-01-13T14:29:19.575Z,2.00
2019-01-13T14:31:51.318Z,1.50
2019-01-13T14:34:23.177Z,1.87
2019-01-13T14:36:54.968Z,2.07
2019-01-13T14:39:27.570Z,2.00
2019-01-13T14:42:00.139Z,2.23
2019-01-13T14:44:31.992Z,1.70
2019-01-13T14:47:03.759Z,1.90
2019-01-13T14:49:35.556Z,2.20
2019-01-13T14:52:07.576Z,1.97
2019-01-13T14:54:40.056Z,1.90
2019-01-13T14:57:11.871Z,2.00
2019-01-13T14:59:43.639Z,1.90
2019-01-13T15:02:15.446Z,2.33
2019-01-13T15:04:47.190Z,1.87
2019-01-13T15:07:18.918Z,2.07
2019-01-13T15:09:51.038Z,2.20
2019-01-13T15:12:26.461Z,2.10
2019-01-13T15:14:58.591Z,1.80
2019-01-13T15:17:30.374Z,1.80
2019-01-13T15:20:02.175Z,2.27
2019-01-13T15:22:33.937Z,2.10
2019-01-13T15:25:07.137Z,2.20
2019-01-13T15:27:39.055Z,2.43
2019-01-13T15:30:21.268Z,2.30
2019-01-13T15:32:53.041Z,2.80
2019-01-13T15:35:24.750Z,2.30
2019-01-13T15:37:56.504Z,2.23
2019-01-13T15:40:30.123Z,2.40
2019-01-13T15:43:01.940Z,2.20
2019-01-13T15:45:33.791Z,2.50
2019-01-13T15:48:06.350Z,2.30
2019-01-13T15:50:38.008Z,1.90
2019-01-13T15:53:09.663Z,2.07
2019-01-13T15:55:41.434Z,2.40
2019-01-13T15:58:14.122Z,2.60
2019-01-13T16:00:45.919Z,2.30
2019-01-13T16:03:17.633Z,2.00
2019-01-13T16:05:49.660Z,2.15
2019-01-13T16:08:21.410Z,1.80
2019-01-13T16:10:53.170Z,2.33
2019-01-13T16:13:25.012Z,1.83
2019-01-13T16:15:56.786Z,2.50
2019-01-13T16:18:28.738Z,2.37
2019-01-13T16:21:00.625Z,2.20
2019-01-13T16:23:32.484Z,2.30
2019-01-13T16:26:04.277Z,2.17
2019-01-13T16:28:36.152Z,2.27
2019-01-13T16:31:08.333Z,2.20
2019-01-13T16:33:40.142Z,2.00
2019-01-13T16:36:11.960Z,2.07
2019-01-13T16:38:43.645Z,2.10
2019-01-13T16:41:16.661Z,2.12
2019-01-13T16:43:48.470Z,1.87
2019-01-13T16:46:20.766Z,2.15
2019-01-13T16:48:52.625Z,2.33
2019-01-13T16:51:24.502Z,1.80
2019-01-13T16:53:56.219Z,2.10
2019-01-13T16:56:28.079Z,2.60
2019-01-13T16:58:59.777Z,2.00
2019-01-13T17:01:31.777Z,2.40
2019-01-13T17:04:03.510Z,2.87
2019-01-13T17:06:35.367Z,2.30
2019-01-13T17:09:12.188Z,2.63
2019-01-13T17:11:43.894Z,2.30
2019-01-13T17:14:16.870Z,2.17
2019-01-13T17:16:48.801Z,2.40
2019-01-13T17:19:20.565Z,2.70
2019-01-13T17:21:52.247Z,2.10
2019-01-13T17:24:24.031Z,2.20
2019-01-13T17:26:56.338Z,2.00
2019-01-13T17:29:28.140Z,2.40
2019-01-13T17:32:00.095Z,2.43
2019-01-13T17:34:35.820Z,2.53
2019-01-13T17:37:05.501Z,2.17
2019-01-13T17:39:37.206Z,2.07
2019-01-13T17:42:09.750Z,1.90
2019-01-13T17:44:41.588Z,1.63
2019-01-13T17:47:13.498Z,2.07
2019-01-13T17:49:45.158Z,2.03
2019-01-13T17:52:18.126Z,2.20
2019-01-13T17:54:49.923Z,1.87
2019-01-13T17:57:21.732Z,2.33
2019-01-13T17:59:53.503Z,2.10
2019-01-13T18:02:25.470Z,1.93
2019-01-13T18:04:57.329Z,2.27
2019-01-13T18:07:29.098Z,2.00
2019-01-13T18:10:00.850Z,1.40
2019-01-13T18:12:32.565Z,1.60
2019-01-13T18:15:04.709Z,1.70
2019-01-13T18:17:36.361Z,1.37
2019-01-13T18:20:13.612Z,1.40
2019-01-13T18:22:45.507Z,1.63
2019-01-13T18:25:17.223Z,1.70
2019-01-13T18:27:49.551Z,1.60
2019-01-13T18:30:24.009Z,1.52
2019-01-13T18:32:56.060Z,1.70
2019-01-13T18:35:28.113Z,1.97
2019-01-13T18:37:59.864Z,1.70
2019-01-13T18:40:32.367Z,2.10
2019-01-13T18:43:04.217Z,1.63
2019-01-13T18:45:35.989Z,2.00
2019-01-13T18:48:07.811Z,2.10
2019-01-13T18:50:39.690Z,2.30
2019-01-13T18:53:14.691Z,2.50
2019-01-13T18:55:46.454Z,2.43
2019-01-13T18:58:18.211Z,2.70
2019-01-13T19:00:50.018Z,2.60
2019-01-13T19:03:21.724Z,2.30
2019-01-13T19:05:53.697Z,2.70
2019-01-13T19:08:26.385Z,2.30
2019-01-13T19:11:32.943Z,1.70
2019-01-13T19:14:55.764Z,1.30
2019-01-13T19:17:29.031Z,1.23
2019-01-13T19:20:17.436Z,1.70
2019-01-13T19:22:56.176Z,1.53
2019-01-13T19:25:31.190Z,1.40
2019-01-13T19:28:03.110Z,1.20
2019-01-13T19:30:35.290Z,1.37
2019-01-13T19:33:07.152Z,1.40
2019-01-13T19:35:38.895Z,1.37
2019-01-13T19:38:10.778Z,1.50
2019-01-13T19:40:43.861Z,1.40
2019-01-13T19:43:15.870Z,1.30
2019-01-13T19:45:47.672Z,1.20
2019-01-13T19:48:19.507Z,1.50
2019-01-13T19:50:51.267Z,1.30
2019-01-13T19:53:23.560Z,1.33
2019-01-13T19:55:55.404Z,1.37
2019-01-13T19:58:27.216Z,1.30
2019-01-13T20:01:00.756Z,1.30
2019-01-13T20:03:32.512Z,1.33
2019-01-13T20:06:04.456Z,1.10
2019-01-13T20:08:36.465Z,1.00
2019-01-13T20:11:08.280Z,1.35
2019-01-13T20:13:40.128Z,1.15
2019-01-13T20:16:12.234Z,1.03
2019-01-13T20:18:43.999Z,0.90
2019-01-13T20:21:16.068Z,0.90
2019-01-13T20:23:48.058Z,1.17
2019-01-13T20:26:19.959Z,1.17
2019-01-13T20:28:51.721Z,1.37
2019-01-13T20:31:24.332Z,1.15
2019-01-13T20:33:56.157Z,1.10
2019-01-13T20:36:27.904Z,1.00
2019-01-13T20:38:59.677Z,0.90
2019-01-13T20:41:32.304Z,1.20
2019-01-13T20:44:04.078Z,1.10
2019-01-13T20:46:35.873Z,1.10
2019-01-13T20:49:07.807Z,1.00
2019-01-13T20:51:41.281Z,1.07
2019-01-13T20:54:13.023Z,1.00
2019-01-13T20:56:44.739Z,1.10
2019-01-13T20:59:16.589Z,1.13
2019-01-13T21:01:48.406Z,1.20
2019-01-13T21:04:20.137Z,1.17
2019-01-13T21:06:51.923Z,1.10
2019-01-13T21:09:23.672Z,1.30
2019-01-13T21:11:55.531Z,1.40
2019-01-13T21:14:27.250Z,1.30
2019-01-13T21:16:59.040Z,1.00
2019-01-13T21:19:31.334Z,1.20
2019-01-13T21:22:03.147Z,1.22
2019-01-13T21:24:37.807Z,1.30
2019-01-13T21:27:09.558Z,1.13
2019-01-13T21:29:41.307Z,1.17
2019-01-13T21:32:13.152Z,1.33
2019-01-13T21:34:45.027Z,1.43
2019-01-13T21:37:16.823Z,1.10
2019-01-13T21:39:48.503Z,1.47
2019-01-13T21:42:21.048Z,1.40
2019-01-13T21:44:52.709Z,1.60
2019-01-13T21:47:24.647Z,1.30
2019-01-13T21:49:56.639Z,1.40
2019-01-13T21:52:28.379Z,2.20
2019-01-13T21:55:00.171Z,1.60
2019-01-13T21:57:31.842Z,1.50
2019-01-13T22:00:04.282Z,1.67
2019-01-13T22:02:36.229Z,1.70
2019-01-13T22:05:09.515Z,2.37
2019-01-13T22:07:41.240Z,1.90
2019-01-13T22:10:16.395Z,1.97
2019-01-13T22:12:48.152Z,1.67
2019-01-13T22:15:20.972Z,1.90
2019-01-13T22:17:52.700Z,2.00
2019-01-13T22:20:25.032Z,1.90
2019-01-13T22:22:56.695Z,1.83
2019-01-13T22:25:28.447Z,2.75
2019-01-13T22:28:00.099Z,1.87
2019-01-13T22:30:31.758Z,1.77
2019-01-13T22:33:03.460Z,2.33
2019-01-13T22:35:35.247Z,2.03
2019-01-13T22:38:07.270Z,1.83
2019-01-13T22:40:39.125Z,1.98
2019-01-13T22:43:11.515Z,1.87
2019-01-13T22:45:43.275Z,1.70
2019-01-13T22:48:14.918Z,1.60
2019-01-13T22:50:46.669Z,2.00
2019-01-13T22:53:18.734Z,1.40
2019-01-13T22:55:50.431Z,1.40
2019-01-13T22:58:22.142Z,2.00
2019-01-13T23:01:16.962Z,1.30
2019-01-13T23:03:49.137Z,1.50
2019-01-13T23:06:20.912Z,1.00
2019-01-13T23:08:52.646Z,1.30
2019-01-13T23:11:24.484Z,1.37
2019-01-13T23:17:02.742Z,1.50
2019-01-13T23:19:34.520Z,1.10
2019-01-13T23:22:06.330Z,1.30
2019-01-13T23:24:38.282Z,1.00
2019-01-13T23:27:10.178Z,1.30
2019-01-13T23:29:41.883Z,1.05
2019-01-13T23:32:13.583Z,1.13
2019-01-13T23:34:45.679Z,1.23
2019-01-13T23:37:19.233Z,1.10
2019-01-13T23:39:50.896Z,1.10
2019-01-13T23:42:23.355Z,1.00
2019-01-13T23:44:55.126Z,1.17
2019-01-13T23:47:26.851Z,1.10
2019-01-13T23:49:58.609Z,1.10
2019-01-13T23:52:30.367Z,1.40
2019-01-13T23:55:02.040Z,1.50
2019-01-13T23:57:33.739Z,1.37
